createdAt,value
2018-09-12T00:00:03.317Z,2.45
2018-09-12T00:01:09.537Z,2.78
2018-09-12T00:02:15.765Z,2.72
2018-09-12T00:03:22.038Z,2.00
2018-09-12T00:04:28.312Z,2.92
2018-09-12T00:05:34.569Z,2.10
2018-09-12T00:06:40.785Z,2.10
2018-09-12T00:07:47.041Z,2.62
2018-09-12T00:08:53.325Z,2.78
2018-09-12T00:09:59.548Z,2.37
2018-09-12T00:11:06.763Z,2.25
2018-09-12T00:12:13.039Z,2.97
2018-09-12T00:13:19.267Z,2.70
2018-09-12T00:14:25.514Z,3.08
2018-09-12T00:15:31.780Z,2.30
2018-09-12T00:16:38.044Z,3.03
2018-09-12T00:17:44.277Z,2.45
2018-09-12T00:18:50.538Z,2.50
2018-09-12T00:19:56.783Z,2.55
2018-09-12T00:21:03.095Z,2.45
2018-09-12T00:22:09.586Z,2.80
2018-09-12T00:23:15.881Z,2.40
2018-09-12T00:24:22.111Z,2.35
2018-09-12T00:25:28.349Z,2.17
2018-09-12T00:26:34.637Z,2.67
2018-09-12T00:27:40.908Z,2.12
2018-09-12T00:28:47.161Z,2.58
2018-09-12T00:29:53.408Z,2.37
2018-09-12T00:30:59.311Z,2.12
2018-09-12T00:32:05.573Z,2.58
2018-09-12T00:33:11.813Z,2.67
2018-09-12T00:34:18.044Z,2.30
2018-09-12T00:35:24.345Z,2.20
2018-09-12T00:36:30.594Z,2.20
2018-09-12T00:37:36.871Z,2.28
2018-09-12T00:38:43.117Z,2.85
2018-09-12T00:39:49.370Z,2.45
2018-09-12T00:40:55.615Z,2.50
2018-09-12T00:42:01.888Z,2.55
2018-09-12T00:43:07.796Z,2.72
2018-09-12T00:44:14.042Z,3.25
2018-09-12T00:45:20.284Z,2.12
2018-09-12T00:46:26.529Z,2.65
2018-09-12T00:47:32.796Z,2.30
2018-09-12T00:48:39.071Z,2.72
2018-09-12T00:49:46.249Z,2.55
2018-09-12T00:50:52.522Z,2.53
2018-09-12T00:51:58.798Z,3.45
2018-09-12T00:53:05.091Z,2.62
2018-09-12T00:54:11.356Z,2.42
2018-09-12T00:55:17.592Z,2.87
2018-09-12T00:56:23.813Z,2.47
2018-09-12T00:57:30.045Z,2.50
2018-09-12T00:58:36.330Z,2.80
2018-09-12T00:59:42.561Z,2.62
2018-09-12T01:00:48.795Z,2.62
2018-09-12T01:01:55.028Z,2.47
2018-09-12T01:03:01.286Z,2.95
2018-09-12T01:04:07.524Z,2.45
2018-09-12T01:05:13.793Z,3.10
2018-09-12T01:06:20.049Z,2.55
2018-09-12T01:07:26.281Z,2.90
2018-09-12T01:08:32.582Z,2.28
2018-09-12T01:09:38.568Z,3.05
2018-09-12T01:10:44.533Z,2.60
2018-09-12T01:11:50.757Z,2.60
2018-09-12T01:12:57.005Z,2.40
2018-09-12T01:14:03.290Z,3.15
2018-09-12T01:15:09.558Z,2.50
2018-09-12T01:16:15.834Z,3.45
2018-09-12T01:17:22.086Z,2.70
2018-09-12T01:18:28.696Z,3.20
2018-09-12T01:19:34.955Z,2.85
2018-09-12T01:20:41.210Z,2.33
2018-09-12T01:21:47.439Z,2.58
2018-09-12T01:22:53.724Z,2.55
2018-09-12T01:24:00.014Z,3.03
2018-09-12T01:25:06.236Z,2.65
2018-09-12T01:26:12.472Z,2.87
2018-09-12T01:27:18.697Z,2.83
2018-09-12T01:28:24.968Z,2.60
2018-09-12T01:29:31.247Z,3.20
2018-09-12T01:30:37.489Z,2.85
2018-09-12T01:31:43.699Z,3.08
2018-09-12T01:32:49.933Z,2.83
2018-09-12T01:33:56.198Z,2.95
2018-09-12T01:35:02.476Z,2.45
2018-09-12T01:36:08.772Z,2.55
2018-09-12T01:37:15.693Z,2.62
2018-09-12T01:38:21.673Z,2.90
2018-09-12T01:39:28.095Z,2.33
2018-09-12T01:40:34.336Z,2.90
2018-09-12T01:41:40.596Z,3.35
2018-09-12T01:42:46.571Z,3.30
2018-09-12T01:43:52.798Z,2.40
2018-09-12T01:44:59.084Z,2.55
2018-09-12T01:46:04.359Z,2.78
2018-09-12T01:47:10.591Z,2.65
2018-09-12T01:48:16.877Z,2.87
2018-09-12T01:49:23.170Z,2.85
2018-09-12T01:50:29.437Z,3.35
2018-09-12T01:51:35.665Z,3.08
2018-09-12T01:52:41.738Z,2.90
2018-09-12T01:53:47.996Z,2.90
2018-09-12T01:54:54.266Z,3.05
2018-09-12T01:56:00.532Z,3.00
2018-09-12T01:57:06.787Z,2.90
2018-09-12T01:58:12.421Z,3.05
2018-09-12T01:59:18.392Z,3.10
2018-09-12T02:00:24.425Z,2.20
2018-09-12T02:01:30.693Z,2.75
2018-09-12T02:02:36.943Z,2.60
2018-09-12T02:03:43.194Z,2.90
2018-09-12T02:04:49.421Z,3.20
2018-09-12T02:05:55.078Z,2.95
2018-09-12T02:07:01.344Z,2.78
2018-09-12T02:08:07.604Z,3.20
2018-09-12T02:09:13.840Z,2.85
2018-09-12T02:10:21.058Z,3.22
2018-09-12T02:11:27.270Z,2.78
2018-09-12T02:12:33.545Z,2.35
2018-09-12T02:13:39.851Z,3.25
2018-09-12T02:14:46.104Z,3.22
2018-09-12T02:15:52.402Z,2.58
2018-09-12T02:16:58.652Z,3.17
2018-09-12T02:18:04.924Z,2.80
2018-09-12T02:19:11.216Z,2.67
2018-09-12T02:20:17.475Z,2.70
2018-09-12T02:21:23.727Z,2.78
2018-09-12T02:22:29.993Z,3.00
2018-09-12T02:23:36.300Z,2.92
2018-09-12T02:24:42.310Z,3.17
2018-09-12T02:25:48.265Z,2.35
2018-09-12T02:26:54.285Z,2.55
2018-09-12T02:28:00.511Z,3.17
2018-09-12T02:29:06.788Z,3.35
2018-09-12T02:30:12.886Z,2.87
2018-09-12T02:31:19.135Z,3.30
2018-09-12T02:32:25.386Z,2.80
2018-09-12T02:33:31.445Z,2.50
2018-09-12T02:34:37.704Z,3.00
2018-09-12T02:35:43.753Z,2.35
2018-09-12T02:36:49.661Z,2.80
2018-09-12T02:37:55.917Z,2.90
2018-09-12T02:39:02.161Z,2.95
2018-09-12T02:40:07.710Z,2.70
2018-09-12T02:41:14.007Z,2.55
2018-09-12T02:42:20.269Z,2.55
2018-09-12T02:43:26.486Z,3.12
2018-09-12T02:44:32.707Z,2.60
2018-09-12T02:45:39.010Z,3.10
2018-09-12T02:46:45.245Z,2.58
2018-09-12T02:47:51.479Z,2.97
2018-09-12T02:48:57.752Z,2.92
2018-09-12T02:50:03.657Z,2.95
2018-09-12T02:51:09.929Z,2.75
2018-09-12T02:52:16.182Z,2.70
2018-09-12T02:53:22.449Z,2.75
2018-09-12T02:54:28.750Z,2.62
2018-09-12T02:55:35.063Z,2.97
2018-09-12T02:56:41.276Z,2.47
2018-09-12T02:57:47.524Z,3.10
2018-09-12T02:58:53.784Z,2.55
2018-09-12T03:00:00.011Z,3.05
2018-09-12T03:01:05.966Z,2.60
2018-09-12T03:02:12.210Z,2.90
2018-09-12T03:03:22.807Z,2.80
2018-09-12T03:04:29.025Z,2.62
2018-09-12T03:05:34.992Z,2.80
2018-09-12T03:06:41.259Z,2.25
2018-09-12T03:07:47.562Z,2.70
2018-09-12T03:08:53.981Z,2.80
2018-09-12T03:10:00.209Z,3.10
2018-09-12T03:11:06.327Z,2.83
2018-09-12T03:12:12.556Z,2.80
2018-09-12T03:13:18.814Z,2.47
2018-09-12T03:14:25.052Z,2.70
2018-09-12T03:15:31.010Z,2.55
2018-09-12T03:16:37.298Z,2.50
2018-09-12T03:17:43.277Z,2.95
2018-09-12T03:18:49.189Z,3.20
2018-09-12T03:19:55.474Z,3.00
2018-09-12T03:21:01.923Z,3.17
2018-09-12T03:22:08.279Z,2.62
2018-09-12T03:23:15.491Z,2.87
2018-09-12T03:24:21.539Z,3.37
2018-09-12T03:25:27.808Z,2.78
2018-09-12T03:26:33.877Z,2.62
2018-09-12T03:27:39.776Z,3.03
2018-09-12T03:28:46.022Z,3.28
2018-09-12T03:29:52.270Z,3.05
2018-09-12T03:30:58.502Z,3.08
2018-09-12T03:32:04.789Z,2.75
2018-09-12T03:33:11.038Z,2.92
2018-09-12T03:34:17.303Z,2.80
2018-09-12T03:35:23.543Z,3.05
2018-09-12T03:36:29.808Z,2.95
2018-09-12T03:37:36.044Z,3.17
2018-09-12T03:38:42.276Z,3.17
2018-09-12T03:39:48.581Z,3.20
2018-09-12T03:40:54.836Z,2.97
2018-09-12T03:42:01.140Z,2.47
2018-09-12T03:43:07.023Z,2.80
2018-09-12T03:44:13.263Z,3.05
2018-09-12T03:45:19.510Z,3.05
2018-09-12T03:46:25.805Z,2.53
2018-09-12T03:47:32.045Z,2.70
2018-09-12T03:48:38.377Z,2.80
2018-09-12T03:49:44.653Z,3.17
2018-09-12T03:50:50.863Z,3.10
2018-09-12T03:51:57.139Z,3.17
2018-09-12T03:53:03.460Z,2.58
2018-09-12T03:54:09.696Z,3.30
2018-09-12T03:55:15.974Z,3.10
2018-09-12T03:56:22.264Z,3.83
2018-09-12T03:57:28.522Z,2.80
2018-09-12T03:58:34.760Z,3.15
2018-09-12T03:59:41.033Z,3.22
2018-09-12T04:00:47.273Z,2.70
2018-09-12T04:01:53.636Z,2.72
2018-09-12T04:02:59.624Z,3.30
2018-09-12T04:04:05.518Z,2.70
2018-09-12T04:05:11.770Z,2.90
2018-09-12T04:06:18.008Z,3.42
2018-09-12T04:07:24.284Z,3.45
2018-09-12T04:08:30.501Z,3.10
2018-09-12T04:09:36.721Z,3.30
2018-09-12T04:10:42.984Z,3.05
2018-09-12T04:11:49.257Z,3.22
2018-09-12T04:12:55.515Z,3.25
2018-09-12T04:14:01.774Z,3.37
2018-09-12T04:15:07.338Z,3.40
2018-09-12T04:16:13.552Z,3.40
2018-09-12T04:17:19.872Z,3.53
2018-09-12T04:18:26.119Z,3.15
2018-09-12T04:19:32.381Z,3.00
2018-09-12T04:20:38.606Z,3.37
2018-09-12T04:21:44.935Z,3.62
2018-09-12T04:22:51.177Z,3.60
2018-09-12T04:23:57.456Z,3.28
2018-09-12T04:25:03.376Z,3.60
2018-09-12T04:26:09.450Z,2.87
2018-09-12T04:27:15.713Z,2.90
2018-09-12T04:28:26.261Z,3.50
2018-09-12T04:29:32.514Z,3.55
2018-09-12T04:30:38.817Z,3.10
2018-09-12T04:31:45.213Z,3.70
2018-09-12T04:32:51.438Z,2.78
2018-09-12T04:33:57.672Z,3.67
2018-09-12T04:35:03.933Z,3.25
2018-09-12T04:36:10.245Z,3.70
2018-09-12T04:37:16.550Z,3.20
2018-09-12T04:38:22.789Z,3.65
2018-09-12T04:39:29.095Z,3.28
2018-09-12T04:40:35.357Z,3.85
2018-09-12T04:41:41.630Z,3.75
2018-09-12T04:42:47.978Z,3.30
2018-09-12T04:43:54.115Z,3.40
2018-09-12T04:45:00.340Z,3.40
2018-09-12T04:46:06.621Z,3.58
2018-09-12T04:47:12.636Z,3.45
2018-09-12T04:48:19.173Z,3.50
2018-09-12T04:49:25.271Z,3.70
2018-09-12T04:50:31.609Z,3.83
2018-09-12T04:51:37.857Z,3.87
2018-09-12T04:52:44.097Z,3.30
2018-09-12T04:53:50.388Z,3.80
2018-09-12T04:54:56.698Z,3.50
2018-09-12T04:56:02.964Z,4.03
2018-09-12T04:57:09.197Z,3.92
2018-09-12T04:58:15.440Z,3.95
2018-09-12T04:59:21.663Z,4.05
2018-09-12T05:00:27.907Z,4.07
2018-09-12T05:01:34.186Z,3.92
2018-09-12T05:02:40.457Z,3.30
2018-09-12T05:03:46.680Z,3.10
2018-09-12T05:04:52.924Z,3.28
2018-09-12T05:05:59.175Z,3.22
2018-09-12T05:07:05.466Z,3.17
2018-09-12T05:08:11.746Z,3.75
2018-09-12T05:09:18.012Z,3.30
2018-09-12T05:10:24.276Z,3.37
2018-09-12T05:11:30.552Z,3.55
2018-09-12T05:12:36.814Z,3.42
2018-09-12T05:13:43.089Z,3.22
2018-09-12T05:14:49.337Z,3.60
2018-09-12T05:15:55.629Z,3.55
2018-09-12T05:17:01.835Z,3.60
2018-09-12T05:18:08.091Z,3.40
2018-09-12T05:19:14.307Z,3.90
2018-09-12T05:20:20.596Z,3.40
2018-09-12T05:21:26.980Z,4.12
2018-09-12T05:22:33.199Z,3.95
2018-09-12T05:23:39.501Z,4.15
2018-09-12T05:24:45.716Z,3.85
2018-09-12T05:25:51.976Z,4.22
2018-09-12T05:26:58.228Z,3.58
2018-09-12T05:28:04.499Z,3.45
2018-09-12T05:29:10.771Z,3.25
2018-09-12T05:30:17.025Z,3.42
2018-09-12T05:31:23.268Z,4.18
2018-09-12T05:32:29.568Z,3.60
2018-09-12T05:33:35.806Z,3.25
2018-09-12T05:34:42.042Z,3.90
2018-09-12T05:35:48.294Z,4.22
2018-09-12T05:36:54.592Z,3.60
2018-09-12T05:38:00.865Z,4.45
2018-09-12T05:39:06.188Z,4.03
2018-09-12T05:40:12.435Z,3.50
2018-09-12T05:41:18.755Z,4.35
2018-09-12T05:42:25.020Z,4.45
2018-09-12T05:43:31.261Z,4.05
2018-09-12T05:44:37.492Z,3.87
2018-09-12T05:45:43.739Z,3.78
2018-09-12T05:46:49.997Z,3.53
2018-09-12T05:47:56.255Z,3.28
2018-09-12T05:49:02.497Z,3.97
2018-09-12T05:50:08.842Z,3.85
2018-09-12T05:51:15.232Z,4.00
2018-09-12T05:52:21.601Z,3.78
2018-09-12T05:53:27.869Z,3.90
2018-09-12T05:54:34.096Z,5.00
2018-09-12T05:55:40.423Z,4.12
2018-09-12T05:56:46.656Z,4.28
2018-09-12T05:57:52.905Z,4.32
2018-09-12T05:58:59.158Z,4.10
2018-09-12T06:00:04.453Z,3.95
2018-09-12T06:01:10.714Z,4.07
2018-09-12T06:02:16.992Z,4.00
2018-09-12T06:03:23.607Z,4.10
2018-09-12T06:04:29.847Z,4.12
2018-09-12T06:05:36.109Z,4.22
2018-09-12T06:06:42.363Z,3.85
2018-09-12T06:07:48.613Z,3.40
2018-09-12T06:08:54.849Z,3.45
2018-09-12T06:10:01.119Z,3.28
2018-09-12T06:11:07.391Z,3.72
2018-09-12T06:12:13.644Z,3.55
2018-09-12T06:13:19.930Z,3.75
2018-09-12T06:14:26.171Z,3.60
2018-09-12T06:15:32.392Z,3.42
2018-09-12T06:16:38.690Z,3.58
2018-09-12T06:17:44.910Z,3.80
2018-09-12T06:18:50.955Z,3.53
2018-09-12T06:19:56.888Z,3.58
2018-09-12T06:21:03.164Z,2.62
2018-09-12T06:22:09.400Z,3.55
2018-09-12T06:23:15.742Z,3.60
2018-09-12T06:24:22.059Z,3.20
2018-09-12T06:25:28.308Z,3.15
2018-09-12T06:26:34.603Z,3.50
2018-09-12T06:27:40.882Z,3.50
2018-09-12T06:28:47.146Z,3.17
2018-09-12T06:29:53.375Z,3.20
2018-09-12T06:30:59.621Z,3.20
2018-09-12T06:32:05.979Z,2.80
2018-09-12T06:33:12.266Z,3.42
2018-09-12T06:34:18.526Z,2.25
2018-09-12T06:35:24.758Z,3.17
2018-09-12T06:36:31.016Z,2.78
2018-09-12T06:37:37.235Z,3.00
2018-09-12T06:38:43.539Z,3.05
2018-09-12T06:39:49.958Z,3.65
2018-09-12T06:40:56.268Z,3.30
2018-09-12T06:42:02.562Z,2.90
2018-09-12T06:43:09.035Z,3.15
2018-09-12T06:44:15.386Z,2.83
2018-09-12T06:45:21.664Z,3.70
2018-09-12T06:46:27.929Z,2.95
2018-09-12T06:47:34.224Z,3.10
2018-09-12T06:48:40.487Z,2.90
2018-09-12T06:49:46.485Z,2.60
2018-09-12T06:50:52.483Z,2.75
2018-09-12T06:51:58.743Z,2.97
2018-09-12T06:53:04.999Z,2.90
2018-09-12T06:54:11.301Z,3.05
2018-09-12T06:55:17.583Z,2.75
2018-09-12T06:56:23.628Z,3.37
2018-09-12T06:57:29.862Z,2.40
2018-09-12T06:58:35.854Z,3.00
2018-09-12T06:59:42.090Z,2.55
2018-09-12T07:00:48.467Z,2.78
2018-09-12T07:01:54.790Z,3.03
2018-09-12T07:03:01.055Z,3.20
2018-09-12T07:04:07.344Z,2.90
2018-09-12T07:05:13.572Z,3.22
2018-09-12T07:06:19.455Z,2.67
2018-09-12T07:07:25.731Z,2.72
2018-09-12T07:08:32.012Z,3.10
2018-09-12T07:09:38.844Z,2.95
2018-09-12T07:10:45.265Z,3.08
2018-09-12T07:11:51.557Z,2.87
2018-09-12T07:12:57.859Z,2.92
2018-09-12T07:14:04.173Z,2.62
2018-09-12T07:15:10.099Z,2.53
2018-09-12T07:16:16.377Z,2.50
2018-09-12T07:17:22.596Z,2.78
2018-09-12T07:18:28.856Z,2.85
2018-09-12T07:19:35.128Z,3.08
2018-09-12T07:20:41.381Z,2.75
2018-09-12T07:21:47.614Z,2.85
2018-09-12T07:22:53.961Z,2.55
2018-09-12T07:24:00.326Z,2.12
2018-09-12T07:25:05.845Z,2.80
2018-09-12T07:26:12.104Z,2.50
2018-09-12T07:27:18.353Z,2.42
2018-09-12T07:28:24.604Z,2.72
2018-09-12T07:29:30.818Z,2.85
2018-09-12T07:30:37.131Z,2.78
2018-09-12T07:31:43.252Z,2.53
2018-09-12T07:32:49.469Z,2.70
2018-09-12T07:33:55.704Z,2.80
2018-09-12T07:35:01.978Z,2.53
2018-09-12T07:36:08.200Z,3.03
2018-09-12T07:37:14.405Z,2.50
2018-09-12T07:38:20.757Z,2.78
2018-09-12T07:39:27.005Z,2.60
2018-09-12T07:40:33.305Z,2.70
2018-09-12T07:41:39.338Z,2.60
2018-09-12T07:42:45.744Z,2.83
2018-09-12T07:43:51.737Z,2.58
2018-09-12T07:44:57.945Z,2.90
2018-09-12T07:46:04.196Z,2.70
2018-09-12T07:47:10.424Z,2.50
2018-09-12T07:48:16.650Z,2.80
2018-09-12T07:49:22.885Z,2.28
2018-09-12T07:50:28.880Z,2.47
2018-09-12T07:51:35.128Z,2.83
2018-09-12T07:52:41.334Z,3.05
2018-09-12T07:53:47.543Z,2.85
2018-09-12T07:54:53.797Z,2.58
2018-09-12T07:55:59.823Z,2.72
2018-09-12T07:57:05.939Z,2.72
2018-09-12T07:58:12.201Z,2.60
2018-09-12T07:59:18.435Z,2.40
2018-09-12T08:00:24.697Z,2.50
2018-09-12T08:01:30.860Z,2.60
2018-09-12T08:02:37.080Z,2.67
2018-09-12T08:03:43.300Z,2.67
2018-09-12T08:04:49.522Z,2.90
2018-09-12T08:05:55.805Z,2.65
2018-09-12T08:07:02.057Z,2.62
2018-09-12T08:08:08.282Z,2.10
2018-09-12T08:09:14.548Z,2.90
2018-09-12T08:10:24.815Z,3.08
2018-09-12T08:11:31.072Z,2.28
2018-09-12T08:12:37.282Z,2.53
2018-09-12T08:13:43.529Z,2.50
2018-09-12T08:14:49.783Z,3.10
2018-09-12T08:15:56.009Z,2.58
2018-09-12T08:17:02.067Z,2.50
2018-09-12T08:18:08.459Z,2.30
2018-09-12T08:19:14.733Z,2.30
2018-09-12T08:20:20.950Z,2.40
2018-09-12T08:21:27.222Z,2.62
2018-09-12T08:22:33.188Z,3.75
2018-09-12T08:23:39.419Z,2.42
2018-09-12T08:24:45.381Z,2.25
2018-09-12T08:25:51.624Z,2.00
2018-09-12T08:26:57.541Z,2.90
2018-09-12T08:28:03.762Z,2.58
2018-09-12T08:29:10.019Z,2.50
2018-09-12T08:30:15.594Z,2.25
2018-09-12T08:31:21.886Z,2.40
2018-09-12T08:32:28.109Z,2.65
2018-09-12T08:33:34.321Z,2.50
2018-09-12T08:34:40.581Z,2.55
2018-09-12T08:35:46.800Z,2.45
2018-09-12T08:36:53.077Z,2.20
2018-09-12T08:37:59.288Z,2.70
2018-09-12T08:39:04.836Z,2.15
2018-09-12T08:40:10.837Z,2.50
2018-09-12T08:41:17.047Z,2.50
2018-09-12T08:42:23.346Z,2.30
2018-09-12T08:43:29.795Z,2.40
2018-09-12T08:44:36.014Z,2.62
2018-09-12T08:45:42.281Z,2.50
2018-09-12T08:46:48.182Z,2.58
2018-09-12T08:47:54.679Z,2.20
2018-09-12T08:49:00.596Z,2.22
2018-09-12T08:50:06.220Z,2.42
2018-09-12T08:51:12.448Z,2.20
2018-09-12T08:52:18.709Z,2.35
2018-09-12T08:53:24.952Z,2.00
2018-09-12T08:54:31.221Z,2.50
2018-09-12T08:55:37.493Z,2.05
2018-09-12T08:56:43.814Z,2.30
2018-09-12T08:57:50.236Z,2.35
2018-09-12T08:58:56.504Z,2.53
2018-09-12T09:00:02.628Z,2.30
2018-09-12T09:01:09.062Z,2.67
2018-09-12T09:02:15.317Z,2.40
2018-09-12T09:03:21.551Z,2.33
2018-09-12T09:04:27.476Z,2.40
2018-09-12T09:05:44.516Z,2.75
2018-09-12T09:06:50.779Z,2.30
2018-09-12T09:07:57.008Z,2.35
2018-09-12T09:09:03.223Z,2.67
2018-09-12T09:10:09.490Z,2.10
2018-09-12T09:11:15.728Z,2.60
2018-09-12T09:12:22.725Z,2.50
2018-09-12T09:13:28.971Z,2.60
2018-09-12T09:14:35.210Z,2.33
2018-09-12T09:15:41.432Z,2.37
2018-09-12T09:16:47.667Z,2.33
2018-09-12T09:17:53.961Z,2.83
2018-09-12T09:19:00.428Z,2.37
2018-09-12T09:20:06.884Z,3.53
2018-09-12T09:21:13.124Z,2.55
2018-09-12T09:22:19.393Z,2.20
2018-09-12T09:23:25.611Z,2.50
2018-09-12T09:24:31.845Z,2.55
2018-09-12T09:25:37.492Z,2.30
2018-09-12T09:26:43.737Z,2.05
2018-09-12T09:27:49.989Z,2.10
2018-09-12T09:28:56.206Z,2.60
2018-09-12T09:30:02.451Z,2.12
2018-09-12T09:31:08.664Z,2.60
2018-09-12T09:32:14.919Z,2.17
2018-09-12T09:33:21.170Z,1.85
2018-09-12T09:34:27.119Z,2.53
2018-09-12T09:35:33.541Z,2.10
2018-09-12T09:36:39.566Z,1.87
2018-09-12T09:37:45.520Z,2.17
2018-09-12T09:38:51.732Z,1.92
2018-09-12T09:39:57.664Z,2.03
2018-09-12T09:41:03.646Z,1.93
2018-09-12T09:42:09.632Z,2.07
2018-09-12T09:43:15.559Z,2.47
2018-09-12T09:44:21.579Z,2.23
2018-09-12T09:45:27.822Z,1.90
2018-09-12T09:46:34.067Z,1.95
2018-09-12T09:47:40.035Z,1.70
2018-09-12T09:48:46.251Z,1.95
2018-09-12T09:49:51.962Z,2.60
2018-09-12T09:50:57.906Z,1.87
2018-09-12T09:52:03.847Z,1.50
2018-09-12T09:53:10.174Z,2.08
2018-09-12T09:54:16.111Z,1.83
2018-09-12T09:55:22.364Z,2.50
2018-09-12T09:56:28.617Z,1.83
2018-09-12T09:57:34.323Z,1.90
2018-09-12T09:58:40.000Z,2.20
2018-09-12T09:59:45.715Z,1.87
2018-09-12T10:00:51.702Z,2.17
2018-09-12T10:03:29.241Z,2.10
2018-09-12T10:04:34.966Z,2.37
2018-09-12T10:05:40.956Z,1.90
2018-09-12T10:06:46.660Z,2.07
2018-09-12T10:07:52.405Z,2.03
2018-09-12T10:08:58.358Z,2.60
2018-09-12T10:10:03.703Z,2.00
2018-09-12T10:11:09.671Z,2.00
2018-09-12T10:12:15.635Z,2.10
2018-09-12T10:13:21.610Z,2.17
2018-09-12T10:14:27.557Z,1.97
2018-09-12T10:15:33.533Z,1.60
2018-09-12T10:16:39.480Z,2.37
2018-09-12T10:17:45.431Z,1.90
2018-09-12T10:18:51.364Z,2.30
2018-09-12T10:19:57.306Z,1.73
2018-09-12T10:21:03.233Z,1.87
2018-09-12T10:22:09.188Z,2.00
2018-09-12T10:23:15.184Z,1.87
2018-09-12T10:24:20.919Z,1.70
2018-09-12T10:25:26.656Z,2.37
2018-09-12T10:26:32.365Z,2.40
2018-09-12T10:27:38.566Z,2.05
2018-09-12T10:28:44.193Z,2.10
2018-09-12T10:29:50.130Z,2.30
2018-09-12T10:30:56.365Z,2.40
2018-09-12T10:32:02.312Z,2.43
2018-09-12T10:33:08.293Z,2.70
2018-09-12T10:34:14.279Z,1.90
2018-09-12T10:35:20.201Z,2.33
2018-09-12T10:36:25.853Z,1.93
2018-09-12T10:37:31.767Z,2.23
2018-09-12T10:38:37.760Z,2.30
2018-09-12T10:39:43.699Z,1.93
2018-09-12T10:40:49.653Z,1.83
2018-09-12T10:41:55.599Z,1.90
2018-09-12T10:43:01.529Z,1.80
2018-09-12T10:44:07.256Z,1.90
2018-09-12T10:45:13.225Z,2.60
2018-09-12T10:46:19.194Z,2.23
2018-09-12T10:47:25.116Z,1.93
2018-09-12T10:48:31.092Z,2.23
2018-09-12T10:49:37.039Z,2.63
2018-09-12T10:50:42.991Z,2.30
2018-09-12T10:51:48.923Z,2.10
2018-09-12T10:52:54.957Z,2.30
2018-09-12T10:54:00.931Z,1.83
2018-09-12T10:55:06.518Z,2.10
2018-09-12T10:56:12.481Z,2.30
2018-09-12T10:57:18.426Z,2.80
2018-09-12T10:58:24.392Z,1.97
2018-09-12T10:59:30.322Z,2.30
2018-09-12T11:00:36.282Z,2.47
2018-09-12T11:01:42.234Z,2.60
2018-09-12T11:02:48.164Z,2.70
2018-09-12T11:03:53.761Z,2.53
2018-09-12T11:04:59.689Z,2.47
2018-09-12T11:06:05.635Z,2.20
2018-09-12T11:07:11.586Z,2.40
2018-09-12T11:08:17.555Z,2.37
2018-09-12T11:09:23.536Z,2.40
2018-09-12T11:10:29.474Z,2.20
2018-09-12T11:11:35.428Z,2.20
2018-09-12T11:12:41.364Z,2.17
2018-09-12T11:13:47.086Z,2.37
2018-09-12T11:14:53.004Z,2.17
2018-09-12T11:15:58.944Z,2.30
2018-09-12T11:17:04.565Z,2.10
2018-09-12T11:18:10.507Z,2.60
2018-09-12T11:19:16.455Z,2.80
2018-09-12T11:20:22.415Z,2.20
2018-09-12T11:21:28.340Z,2.20
2018-09-12T11:22:34.308Z,2.43
2018-09-12T11:23:40.253Z,2.97
2018-09-12T11:24:46.224Z,2.40
2018-09-12T11:25:52.184Z,2.37
2018-09-12T11:26:58.106Z,2.20
2018-09-12T11:28:03.695Z,2.43
2018-09-12T11:29:09.696Z,2.43
2018-09-12T11:30:15.624Z,2.67
2018-09-12T11:31:21.565Z,1.97
2018-09-12T11:32:27.524Z,3.33
2018-09-12T11:33:33.505Z,2.50
2018-09-12T11:34:39.471Z,2.10
2018-09-12T11:35:45.396Z,2.33
2018-09-12T11:36:51.330Z,2.50
2018-09-12T11:37:57.260Z,2.20
2018-09-12T11:39:03.010Z,2.10
2018-09-12T11:40:10.429Z,2.33
2018-09-12T11:41:16.839Z,2.80
2018-09-12T11:42:22.777Z,2.13
2018-09-12T11:43:28.707Z,1.93
2018-09-12T11:44:34.663Z,2.77
2018-09-12T11:45:40.616Z,1.83
2018-09-12T11:46:46.544Z,2.37
2018-09-12T11:47:52.506Z,2.33
2018-09-12T11:48:58.529Z,1.90
2018-09-12T11:50:04.354Z,2.30
2018-09-12T11:51:09.998Z,1.97
2018-09-12T11:52:15.938Z,2.50
2018-09-12T11:53:21.907Z,2.03
2018-09-12T11:54:27.878Z,2.23
2018-09-12T11:55:33.974Z,2.17
2018-09-12T11:56:40.065Z,1.60
2018-09-12T11:57:46.029Z,2.30
2018-09-12T11:58:51.976Z,2.10
2018-09-12T11:59:57.965Z,2.33
2018-09-12T12:01:03.924Z,1.90
2018-09-12T12:02:09.924Z,2.40
2018-09-12T12:03:16.147Z,2.03
2018-09-12T12:04:22.132Z,2.23
2018-09-12T12:05:27.855Z,2.20
2018-09-12T12:06:33.786Z,2.03
2018-09-12T12:07:39.713Z,2.03
2018-09-12T12:08:45.627Z,2.37
2018-09-12T12:09:51.372Z,1.90
2018-09-12T12:10:57.363Z,2.00
2018-09-12T12:12:03.296Z,2.17
2018-09-12T12:13:09.243Z,2.20
2018-09-12T12:14:15.178Z,2.00
2018-09-12T12:15:21.424Z,2.00
2018-09-12T12:16:27.566Z,2.03
2018-09-12T12:17:33.540Z,1.83
2018-09-12T12:18:39.568Z,1.80
2018-09-12T12:19:45.561Z,2.23
2018-09-12T12:20:51.564Z,2.13
2018-09-12T12:21:57.561Z,2.27
2018-09-12T12:23:03.568Z,1.97
2018-09-12T12:24:09.729Z,1.80
2018-09-12T12:25:15.696Z,1.70
2018-09-12T12:26:21.683Z,2.07
2018-09-12T12:27:27.621Z,2.10
2018-09-12T12:28:33.593Z,2.50
2018-09-12T12:29:39.239Z,2.10
2018-09-12T12:30:45.477Z,1.80
2018-09-12T12:31:51.466Z,2.10
2018-09-12T12:32:57.441Z,2.10
2018-09-12T12:34:03.459Z,2.20
2018-09-12T12:35:09.460Z,2.03
2018-09-12T12:36:15.392Z,2.50
2018-09-12T12:37:21.372Z,1.93
2018-09-12T12:38:27.332Z,2.40
2018-09-12T12:39:32.928Z,2.50
2018-09-12T12:40:38.892Z,2.23
2018-09-12T12:41:44.836Z,2.10
2018-09-12T12:42:50.789Z,2.63
2018-09-12T12:43:56.722Z,2.27
2018-09-12T12:45:02.452Z,2.50
2018-09-12T12:46:08.392Z,2.20
2018-09-12T12:47:14.361Z,2.10
2018-09-12T12:48:20.377Z,1.97
2018-09-12T12:49:26.321Z,2.20
2018-09-12T12:50:32.296Z,1.80
2018-09-12T12:51:38.242Z,2.10
2018-09-12T12:52:44.186Z,2.40
2018-09-12T12:53:50.159Z,2.27
2018-09-12T12:54:56.029Z,1.93
2018-09-12T12:56:02.001Z,2.40
2018-09-12T12:57:07.947Z,2.20
2018-09-12T12:58:13.890Z,2.17
2018-09-12T12:59:19.864Z,1.77
2018-09-12T13:00:25.826Z,2.80
2018-09-12T13:01:31.764Z,1.87
2018-09-12T13:02:37.702Z,2.30
2018-09-12T13:03:43.680Z,2.10
2018-09-12T13:04:49.628Z,2.50
2018-09-12T13:05:55.614Z,2.00
2018-09-12T13:07:01.553Z,2.07
2018-09-12T13:08:07.538Z,2.30
2018-09-12T13:09:13.485Z,2.67
2018-09-12T13:10:19.741Z,2.27
2018-09-12T13:11:25.691Z,2.40
2018-09-12T13:12:31.653Z,2.70
2018-09-12T13:13:37.815Z,2.57
2018-09-12T13:14:43.841Z,2.23
2018-09-12T13:15:49.961Z,2.23
2018-09-12T13:16:55.876Z,2.10
2018-09-12T13:18:01.813Z,2.00
2018-09-12T13:19:07.796Z,2.17
2018-09-12T13:20:13.754Z,2.23
2018-09-12T13:21:19.781Z,2.40
2018-09-12T13:22:25.940Z,2.10
2018-09-12T13:23:31.914Z,2.50
2018-09-12T13:24:37.856Z,2.47
2018-09-12T13:25:43.845Z,2.67
2018-09-12T13:26:49.848Z,2.33
2018-09-12T13:27:56.565Z,2.20
2018-09-12T13:29:02.614Z,2.17
2018-09-12T13:30:08.624Z,2.70
2018-09-12T13:31:14.612Z,2.40
2018-09-12T13:32:21.451Z,2.90
2018-09-12T13:33:29.179Z,2.10
2018-09-12T13:34:37.616Z,2.00
2018-09-12T13:35:45.083Z,2.20
2018-09-12T13:36:51.448Z,2.57
2018-09-12T13:37:57.433Z,2.63
2018-09-12T13:39:03.288Z,3.00
2018-09-12T13:40:09.137Z,3.50
2018-09-12T13:41:15.153Z,2.30
2018-09-12T13:42:21.133Z,3.57
2018-09-12T13:43:27.080Z,2.60
2018-09-12T13:44:33.140Z,2.50
2018-09-12T13:45:39.254Z,2.93
2018-09-12T13:46:45.200Z,2.63
2018-09-12T13:47:51.161Z,2.73
2018-09-12T13:48:57.162Z,2.07
2018-09-12T13:50:02.774Z,2.60
2018-09-12T13:51:08.803Z,2.40
2018-09-12T13:52:14.761Z,2.73
2018-09-12T13:53:20.743Z,2.30
2018-09-12T13:54:26.732Z,3.37
2018-09-12T13:55:32.725Z,2.60
2018-09-12T13:56:38.735Z,2.57
2018-09-12T13:57:44.888Z,2.30
2018-09-12T13:58:50.893Z,3.00
2018-09-12T13:59:56.943Z,2.80
2018-09-12T14:01:02.955Z,2.77
2018-09-12T14:02:08.909Z,2.30
2018-09-12T14:03:14.924Z,2.80
2018-09-12T14:04:21.083Z,2.40
2018-09-12T14:05:27.019Z,2.67
2018-09-12T14:06:33.005Z,2.67
2018-09-12T14:07:38.952Z,2.37
2018-09-12T14:08:44.979Z,2.40
2018-09-12T14:09:51.140Z,2.57
2018-09-12T14:10:57.097Z,2.23
2018-09-12T14:12:03.085Z,2.93
2018-09-12T14:13:09.048Z,2.70
2018-09-12T14:14:14.765Z,2.63
2018-09-12T14:15:20.729Z,2.60
2018-09-12T14:16:26.758Z,2.63
2018-09-12T14:17:32.490Z,2.20
2018-09-12T14:18:38.461Z,2.47
2018-09-12T14:19:44.418Z,2.40
2018-09-12T14:20:50.340Z,2.10
2018-09-12T14:21:56.322Z,2.60
2018-09-12T14:23:02.297Z,2.20
2018-09-12T14:24:08.264Z,2.10
2018-09-12T14:25:13.920Z,2.90
2018-09-12T14:26:19.893Z,2.30
2018-09-12T14:27:25.861Z,2.90
2018-09-12T14:28:31.849Z,2.30
2018-09-12T14:29:37.825Z,2.27
2018-09-12T14:30:43.821Z,2.50
2018-09-12T14:31:49.845Z,2.40
2018-09-12T14:32:55.800Z,3.30
2018-09-12T14:34:01.782Z,2.43
2018-09-12T14:35:07.781Z,2.50
2018-09-12T14:36:13.742Z,2.17
2018-09-12T14:37:19.699Z,2.20
2018-09-12T14:38:25.665Z,2.53
2018-09-12T14:39:31.666Z,3.00
2018-09-12T14:40:37.839Z,2.63
2018-09-12T14:41:43.838Z,2.70